sensor_id;sensor_type;location;lat;lon;timestamp;pressure;altitude;pressure_sealevel;temperature;humidity
19150;BME280;9707;49.158;8.632;2023-04-28T00:01:13;100189.41;;;22.34;34.36
19150;BME280;9707;49.158;8.632;2023-04-28T00:03:39;100184.00;;;22.34;34.31
19150;BME280;9707;49.158;8.632;2023-04-28T00:06:04;100185.88;;;22.34;34.25
19150;BME280;9707;49.158;8.632;2023-04-28T00:08:30;100182.16;;;22.35;34.36
19150;BME280;9707;49.158;8.632;2023-04-28T00:10:56;100180.44;;;22.34;34.23
19150;BME280;9707;49.158;8.632;2023-04-28T00:13:21;100172.31;;;22.34;34.37
19150;BME280;9707;49.158;8.632;2023-04-28T00:15:48;100171.28;;;22.35;34.34
19150;BME280;9707;49.158;8.632;2023-04-28T00:18:13;100169.59;;;22.34;34.14
19150;BME280;9707;49.158;8.632;2023-04-28T00:20:39;100170.56;;;22.33;34.41
19150;BME280;9707;49.158;8.632;2023-04-28T00:23:04;100166.13;;;22.32;34.60
19150;BME280;9707;49.158;8.632;2023-04-28T00:25:29;100167.00;;;22.32;34.32
19150;BME280;9707;49.158;8.632;2023-04-28T00:27:55;100169.84;;;22.31;34.47
19150;BME280;9707;49.158;8.632;2023-04-28T00:30:20;100162.41;;;22.33;34.69
19150;BME280;9707;49.158;8.632;2023-04-28T00:32:45;100150.72;;;22.32;34.66
19150;BME280;9707;49.158;8.632;2023-04-28T00:35:11;100157.84;;;22.33;34.56
19150;BME280;9707;49.158;8.632;2023-04-28T00:37:37;100148.84;;;22.33;34.61
19150;BME280;9707;49.158;8.632;2023-04-28T00:40:03;100146.13;;;22.33;34.80
19150;BME280;9707;49.158;8.632;2023-04-28T00:42:29;100142.44;;;22.34;34.71
19150;BME280;9707;49.158;8.632;2023-04-28T00:44:54;100141.44;;;22.35;34.77
19150;BME280;9707;49.158;8.632;2023-04-28T00:47:19;100133.31;;;22.35;34.79
19150;BME280;9707;49.158;8.632;2023-04-28T00:49:45;100138.72;;;22.35;34.68
19150;BME280;9707;49.158;8.632;2023-04-28T00:52:11;100137.03;;;22.34;34.67
19150;BME280;9707;49.158;8.632;2023-04-28T00:54:37;100134.31;;;22.34;34.65
19150;BME280;9707;49.158;8.632;2023-04-28T00:57:02;100142.44;;;22.34;34.56
19150;BME280;9707;49.158;8.632;2023-04-28T00:59:29;100145.16;;;22.34;34.74
19150;BME280;9707;49.158;8.632;2023-04-28T01:01:54;100146.00;;;22.34;34.78
19150;BME280;9707;49.158;8.632;2023-04-28T01:04:21;100147.00;;;22.33;34.91
19150;BME280;9707;49.158;8.632;2023-04-28T01:06:47;100142.44;;;22.34;34.74
19150;BME280;9707;49.158;8.632;2023-04-28T01:09:13;100125.31;;;22.33;34.82
19150;BME280;9707;49.158;8.632;2023-04-28T01:11:38;100114.44;;;22.33;34.79
19150;BME280;9707;49.158;8.632;2023-04-28T01:14:03;100106.16;;;22.35;34.84
19150;BME280;9707;49.158;8.632;2023-04-28T01:16:29;100101.75;;;22.34;34.82
19150;BME280;9707;49.158;8.632;2023-04-28T01:18:56;100100.88;;;22.33;34.87
19150;BME280;9707;49.158;8.632;2023-04-28T01:21:34;100095.44;;;22.33;34.86
19150;BME280;9707;49.158;8.632;2023-04-28T01:24:00;100081.19;;;22.31;34.89
19150;BME280;9707;49.158;8.632;2023-04-28T01:26:26;100093.00;;;22.30;35.04
19150;BME280;9707;49.158;8.632;2023-04-28T01:28:51;100096.84;;;22.28;35.01
19150;BME280;9707;49.158;8.632;2023-04-28T01:31:16;100094.13;;;22.28;35.26
19150;BME280;9707;49.158;8.632;2023-04-28T01:33:42;100084.28;;;22.27;35.04
19150;BME280;9707;49.158;8.632;2023-04-28T01:36:07;100094.13;;;22.28;35.11
19150;BME280;9707;49.158;8.632;2023-04-28T01:38:33;100098.72;;;22.27;35.29
19150;BME280;9707;49.158;8.632;2023-04-28T01:40:58;100090.72;;;22.26;35.42
19150;BME280;9707;49.158;8.632;2023-04-28T01:43:23;100095.28;;;22.25;35.35
19150;BME280;9707;49.158;8.632;2023-04-28T01:45:49;100095.28;;;22.25;35.43
19150;BME280;9707;49.158;8.632;2023-04-28T01:48:15;100103.41;;;22.25;35.42
19150;BME280;9707;49.158;8.632;2023-04-28T01:50:40;100099.88;;;22.25;35.61
19150;BME280;9707;49.158;8.632;2023-04-28T01:53:05;100096.41;;;22.23;35.63
19150;BME280;9707;49.158;8.632;2023-04-28T01:55:31;100096.41;;;22.23;35.74
19150;BME280;9707;49.158;8.632;2023-04-28T01:57:56;100096.56;;;22.21;35.62
19150;BME280;9707;49.158;8.632;2023-04-28T02:00:24;100092.00;;;22.22;35.74
19150;BME280;9707;49.158;8.632;2023-04-28T02:02:51;100087.56;;;22.21;35.81
19150;BME280;9707;49.158;8.632;2023-04-28T02:05:16;100100.13;;;22.22;35.94
19150;BME280;9707;49.158;8.632;2023-04-28T02:07:41;100103.84;;;22.21;35.93
19150;BME280;9707;49.158;8.632;2023-04-28T02:10:07;100102.13;;;22.20;35.89
19150;BME280;9707;49.158;8.632;2023-04-28T02:12:33;100096.72;;;22.20;35.99
19150;BME280;9707;49.158;8.632;2023-04-28T02:14:58;100102.13;;;22.20;35.85
19150;BME280;9707;49.158;8.632;2023-04-28T02:17:23;100100.13;;;22.22;35.93
19150;BME280;9707;49.158;8.632;2023-04-28T02:19:54;100088.44;;;22.21;35.90
19150;BME280;9707;49.158;8.632;2023-04-28T02:22:20;100091.28;;;22.20;35.90
19150;BME280;9707;49.158;8.632;2023-04-28T02:24:45;100088.72;;;22.18;35.95
19150;BME280;9707;49.158;8.632;2023-04-28T02:27:10;100103.97;;;22.19;36.01
19150;BME280;9707;49.158;8.632;2023-04-28T02:29:36;100100.44;;;22.19;36.03
19150;BME280;9707;49.158;8.632;2023-04-28T02:32:01;100095.00;;;22.19;35.93
19150;BME280;9707;49.158;8.632;2023-04-28T02:34:28;100109.28;;;22.21;35.92
19150;BME280;9707;49.158;8.632;2023-04-28T02:36:53;100102.97;;;22.20;36.13
19150;BME280;9707;49.158;8.632;2023-04-28T02:39:19;100098.69;;;22.18;35.90
19150;BME280;9707;49.158;8.632;2023-04-28T02:41:46;100093.25;;;22.18;36.07
19150;BME280;9707;49.158;8.632;2023-04-28T02:44:11;100088.72;;;22.18;36.15
19150;BME280;9707;49.158;8.632;2023-04-28T02:46:36;100077.72;;;22.20;36.00
19150;BME280;9707;49.158;8.632;2023-04-28T02:49:01;100078.44;;;22.22;35.87
19150;BME280;9707;49.158;8.632;2023-04-28T02:51:27;100074.72;;;22.23;35.82
19150;BME280;9707;49.158;8.632;2023-04-28T02:53:52;100072.00;;;22.23;35.88
19150;BME280;9707;49.158;8.632;2023-04-28T02:56:17;100073.00;;;22.22;35.90
19150;BME280;9707;49.158;8.632;2023-04-28T02:58:43;100057.84;;;22.19;35.94
19150;BME280;9707;49.158;8.632;2023-04-28T03:01:08;100066.13;;;22.18;36.09
19150;BME280;9707;49.158;8.632;2023-04-28T03:03:33;100058.28;;;22.15;36.14
19150;BME280;9707;49.158;8.632;2023-04-28T03:05:58;100061.00;;;22.15;36.33
19150;BME280;9707;49.158;8.632;2023-04-28T03:08:24;100062.97;;;22.13;36.35
19150;BME280;9707;49.158;8.632;2023-04-28T03:10:49;100078.41;;;22.12;36.50
19150;BME280;9707;49.158;8.632;2023-04-28T03:13:14;100080.41;;;22.10;36.46
19150;BME280;9707;49.158;8.632;2023-04-28T03:15:40;100072.41;;;22.09;36.58
19150;BME280;9707;49.158;8.632;2023-04-28T03:18:08;100076.84;;;22.10;36.55
19150;BME280;9707;49.158;8.632;2023-04-28T03:20:33;100059.81;;;22.08;36.70
19150;BME280;9707;49.158;8.632;2023-04-28T03:22:58;100061.84;;;22.06;36.69
19150;BME280;9707;49.158;8.632;2023-04-28T03:25:23;100058.13;;;22.07;37.04
19150;BME280;9707;49.158;8.632;2023-04-28T03:27:49;100061.84;;;22.06;36.86
19150;BME280;9707;49.158;8.632;2023-04-28T03:30:14;100055.53;;;22.05;36.98
19150;BME280;9707;49.158;8.632;2023-04-28T03:32:39;100056.41;;;22.06;36.81
19150;BME280;9707;49.158;8.632;2023-04-28T03:35:05;100050.13;;;22.05;36.91
19150;BME280;9707;49.158;8.632;2023-04-28T03:37:30;100056.41;;;22.06;36.79
19150;BME280;9707;49.158;8.632;2023-04-28T03:39:55;100065.56;;;22.05;36.90
19150;BME280;9707;49.158;8.632;2023-04-28T03:42:20;100063.84;;;22.04;37.07
19150;BME280;9707;49.158;8.632;2023-04-28T03:44:46;100071.97;;;22.04;37.19
19150;BME280;9707;49.158;8.632;2023-04-28T03:47:11;100063.84;;;22.04;37.17
19150;BME280;9707;49.158;8.632;2023-04-28T03:49:36;100064.69;;;22.04;37.10
19150;BME280;9707;49.158;8.632;2023-04-28T03:52:01;100062.97;;;22.03;37.20
19150;BME280;9707;49.158;8.632;2023-04-28T03:54:28;100061.13;;;22.04;37.21
19150;BME280;9707;49.158;8.632;2023-04-28T03:56:53;100054.84;;;22.03;37.31
19150;BME280;9707;49.158;8.632;2023-04-28T03:59:18;100062.97;;;22.03;37.20
19150;BME280;9707;49.158;8.632;2023-04-28T04:01:44;100061.13;;;22.04;37.15
19150;BME280;9707;49.158;8.632;2023-04-28T04:04:09;100069.25;;;22.04;37.24
19150;BME280;9707;49.158;8.632;2023-04-28T04:06:34;100061.13;;;22.04;37.29
19150;BME280;9707;49.158;8.632;2023-04-28T04:09:00;100071.97;;;22.04;37.07
19150;BME280;9707;49.158;8.632;2023-04-28T04:11:25;100063.84;;;22.04;37.06
19150;BME280;9707;49.158;8.632;2023-04-28T04:13:50;100064.69;;;22.04;37.11
19150;BME280;9707;49.158;8.632;2023-04-28T04:16:15;100070.97;;;22.05;37.16
19150;BME280;9707;49.158;8.632;2023-04-28T04:18:41;100062.09;;;22.03;37.26
19150;BME280;9707;49.158;8.632;2023-04-28T04:21:06;100056.69;;;22.03;37.65
19150;BME280;9707;49.158;8.632;2023-04-28T04:23:32;100049.53;;;22.02;37.32
19150;BME280;9707;49.158;8.632;2023-04-28T04:25:57;100050.41;;;22.02;37.14
19150;BME280;9707;49.158;8.632;2023-04-28T04:28:22;100045.81;;;22.03;37.37
19150;BME280;9707;49.158;8.632;2023-04-28T04:30:47;100038.69;;;22.02;37.38
19150;BME280;9707;49.158;8.632;2023-04-28T04:33:13;100033.28;;;22.02;37.32
19150;BME280;9707;49.158;8.632;2023-04-28T04:35:38;100027.00;;;22.01;37.30
19150;BME280;9707;49.158;8.632;2023-04-28T04:38:04;100019.72;;;22.02;37.36
19150;BME280;9707;49.158;8.632;2023-04-28T04:40:29;100019.00;;;22.00;37.43
19150;BME280;9707;49.158;8.632;2023-04-28T04:42:54;100018.88;;;22.01;37.59
19150;BME280;9707;49.158;8.632;2023-04-28T04:45:20;100023.44;;;22.01;37.48
19150;BME280;9707;49.158;8.632;2023-04-28T04:47:45;100020.72;;;22.01;37.49
19150;BME280;9707;49.158;8.632;2023-04-28T04:50:11;100017.13;;;22.00;37.50
19150;BME280;9707;49.158;8.632;2023-04-28T04:52:36;100019.00;;;22.00;37.39
19150;BME280;9707;49.158;8.632;2023-04-28T04:55:02;100012.56;;;22.01;37.30
19150;BME280;9707;49.158;8.632;2023-04-28T04:57:28;100016.16;;;22.01;37.48
19150;BME280;9707;49.158;8.632;2023-04-28T04:59:53;100016.16;;;22.01;37.49
19150;BME280;9707;49.158;8.632;2023-04-28T05:02:18;100018.00;;;22.01;38.11
19150;BME280;9707;49.158;8.632;2023-04-28T05:04:43;100025.25;;;22.00;37.55
19150;BME280;9707;49.158;8.632;2023-04-28T05:07:09;100023.56;;;21.99;37.88
19150;BME280;9707;49.158;8.632;2023-04-28T05:09:34;100021.84;;;21.98;37.98
19150;BME280;9707;49.158;8.632;2023-04-28T05:11:59;100024.69;;;21.97;38.04
19150;BME280;9707;49.158;8.632;2023-04-28T05:14:25;100024.00;;;21.95;38.10
19150;BME280;9707;49.158;8.632;2023-04-28T05:16:50;100025.84;;;21.94;38.41
19150;BME280;9707;49.158;8.632;2023-04-28T05:19:15;100026.00;;;21.93;38.23
19150;BME280;9707;49.158;8.632;2023-04-28T05:21:41;100018.84;;;21.92;38.39
19150;BME280;9707;49.158;8.632;2023-04-28T05:24:06;100026.13;;;21.91;38.10
19150;BME280;9707;49.158;8.632;2023-04-28T05:26:31;100027.97;;;21.91;38.47
19150;BME280;9707;49.158;8.632;2023-04-28T05:28:57;100027.13;;;21.90;38.66
19150;BME280;9707;49.158;8.632;2023-04-28T05:31:22;100033.41;;;21.91;38.63
19150;BME280;9707;49.158;8.632;2023-04-28T05:33:47;100033.41;;;21.91;38.59
19150;BME280;9707;49.158;8.632;2023-04-28T05:36:12;100030.69;;;21.91;38.53
19150;BME280;9707;49.158;8.632;2023-04-28T05:38:40;100030.69;;;21.91;38.58
19150;BME280;9707;49.158;8.632;2023-04-28T05:41:06;100020.69;;;21.91;38.83
19150;BME280;9707;49.158;8.632;2023-04-28T05:43:31;100019.84;;;21.91;38.73
19150;BME280;9707;49.158;8.632;2023-04-28T05:45:56;100006.28;;;21.91;38.80
19150;BME280;9707;49.158;8.632;2023-04-28T05:48:22;100001.72;;;21.91;38.86
19150;BME280;9707;49.158;8.632;2023-04-28T05:50:47;100009.84;;;21.91;38.74
19150;BME280;9707;49.158;8.632;2023-04-28T05:53:12;100018.84;;;21.92;38.85
19150;BME280;9707;49.158;8.632;2023-04-28T05:55:38;100020.69;;;21.91;38.86
19150;BME280;9707;49.158;8.632;2023-04-28T05:58:03;100013.41;;;21.92;39.34
19150;BME280;9707;49.158;8.632;2023-04-28T06:00:28;100013.56;;;21.90;39.57
19150;BME280;9707;49.158;8.632;2023-04-28T06:02:54;100022.84;;;21.88;39.45
19150;BME280;9707;49.158;8.632;2023-04-28T06:05:19;100030.09;;;21.87;39.53
19150;BME280;9707;49.158;8.632;2023-04-28T06:07:45;100025.56;;;21.88;39.56
19150;BME280;9707;49.158;8.632;2023-04-28T06:10:10;100026.41;;;21.88;39.51
19150;BME280;9707;49.158;8.632;2023-04-28T06:12:36;100030.97;;;21.88;39.79
19150;BME280;9707;49.158;8.632;2023-04-28T06:15:01;100028.25;;;21.88;39.65
19150;BME280;9707;49.158;8.632;2023-04-28T06:17:27;100030.97;;;21.88;39.91
19150;BME280;9707;49.158;8.632;2023-04-28T06:19:54;100020.13;;;21.88;39.89
19150;BME280;9707;49.158;8.632;2023-04-28T06:22:19;100014.72;;;21.88;39.94
19150;BME280;9707;49.158;8.632;2023-04-28T06:24:45;100014.72;;;21.88;39.94
19150;BME280;9707;49.158;8.632;2023-04-28T06:27:10;100019.41;;;21.86;40.15
19150;BME280;9707;49.158;8.632;2023-04-28T06:29:36;100020.13;;;21.88;40.21
19150;BME280;9707;49.158;8.632;2023-04-28T06:32:01;100020.13;;;21.88;40.21
19150;BME280;9707;49.158;8.632;2023-04-28T06:34:27;100029.97;;;21.89;39.97
19150;BME280;9707;49.158;8.632;2023-04-28T06:36:53;100023.56;;;21.90;39.93
19150;BME280;9707;49.158;8.632;2023-04-28T06:39:19;100022.69;;;21.89;39.85
19150;BME280;9707;49.158;8.632;2023-04-28T06:41:45;100020.84;;;21.90;39.72
19150;BME280;9707;49.158;8.632;2023-04-28T06:44:11;100025.25;;;21.91;39.93
19150;BME280;9707;49.158;8.632;2023-04-28T06:46:36;100033.41;;;21.91;40.11
19150;BME280;9707;49.158;8.632;2023-04-28T06:49:01;100041.53;;;21.91;40.05
19150;BME280;9707;49.158;8.632;2023-04-28T06:51:26;100038.09;;;21.89;40.26
19150;BME280;9707;49.158;8.632;2023-04-28T06:53:52;100038.09;;;21.89;40.35
19150;BME280;9707;49.158;8.632;2023-04-28T06:56:18;100034.41;;;21.90;40.48
19150;BME280;9707;49.158;8.632;2023-04-28T06:58:43;100046.25;;;21.89;40.48
19150;BME280;9707;49.158;8.632;2023-04-28T07:01:09;100037.25;;;21.88;40.62
19150;BME280;9707;49.158;8.632;2023-04-28T07:03:34;100038.09;;;21.89;40.35
19150;BME280;9707;49.158;8.632;2023-04-28T07:06:00;100037.25;;;21.88;40.25
19150;BME280;9707;49.158;8.632;2023-04-28T07:08:25;100049.78;;;21.89;40.11
19150;BME280;9707;49.158;8.632;2023-04-28T07:10:50;100058.81;;;21.90;40.03
19150;BME280;9707;49.158;8.632;2023-04-28T07:13:16;100049.66;;;21.91;40.10
19150;BME280;9707;49.158;8.632;2023-04-28T07:15:41;100044.25;;;21.91;39.73
19150;BME280;9707;49.158;8.632;2023-04-28T07:18:06;100046.81;;;21.92;39.78
19150;BME280;9707;49.158;8.632;2023-04-28T07:20:32;100030.69;;;21.91;39.70
19150;BME280;9707;49.158;8.632;2023-04-28T07:22:57;100039.69;;;21.91;39.43
19150;BME280;9707;49.158;8.632;2023-04-28T07:25:22;100045.94;;;21.92;39.91
19150;BME280;9707;49.158;8.632;2023-04-28T07:27:47;100045.94;;;21.92;39.92
19150;BME280;9707;49.158;8.632;2023-04-28T07:30:14;100044.97;;;21.93;40.01
19150;BME280;9707;49.158;8.632;2023-04-28T07:32:40;100043.25;;;21.92;40.09
19150;BME280;9707;49.158;8.632;2023-04-28T07:35:06;100043.09;;;21.93;39.84
19150;BME280;9707;49.158;8.632;2023-04-28T07:37:31;100045.81;;;21.93;39.80
19150;BME280;9707;49.158;8.632;2023-04-28T07:39:56;100038.56;;;21.94;40.08
19150;BME280;9707;49.158;8.632;2023-04-28T07:42:22;100036.84;;;21.93;39.97
19150;BME280;9707;49.158;8.632;2023-04-28T07:44:47;100038.69;;;21.92;40.36
19150;BME280;9707;49.158;8.632;2023-04-28T07:47:12;100036.97;;;21.91;40.15
19150;BME280;9707;49.158;8.632;2023-04-28T07:49:38;100039.56;;;21.93;39.77
19150;BME280;9707;49.158;8.632;2023-04-28T07:52:03;100046.69;;;21.94;39.80
19150;BME280;9707;49.158;8.632;2023-04-28T07:54:28;100031.41;;;21.93;39.87
19150;BME280;9707;49.158;8.632;2023-04-28T07:56:55;100042.25;;;21.93;39.90
19150;BME280;9707;49.158;8.632;2023-04-28T07:59:22;100046.69;;;21.94;39.72
19150;BME280;9707;49.158;8.632;2023-04-28T08:01:47;100051.09;;;21.95;39.62
19150;BME280;9707;49.158;8.632;2023-04-28T08:04:12;100054.66;;;21.95;40.01
19150;BME280;9707;49.158;8.632;2023-04-28T08:06:37;100059.25;;;21.95;40.25
19150;BME280;9707;49.158;8.632;2023-04-28T08:09:04;100057.53;;;21.94;40.44
19150;BME280;9707;49.158;8.632;2023-04-28T08:11:30;100066.69;;;21.93;40.52
19150;BME280;9707;49.158;8.632;2023-04-28T08:13:55;100062.22;;;21.92;40.64
19150;BME280;9707;49.158;8.632;2023-04-28T08:16:25;100072.09;;;21.93;40.82
19150;BME280;9707;49.158;8.632;2023-04-28T08:18:51;100066.69;;;21.93;40.74
19150;BME280;9707;49.158;8.632;2023-04-28T08:21:16;100067.66;;;21.92;40.85
19150;BME280;9707;49.158;8.632;2023-04-28T08:23:42;100072.09;;;21.93;40.47
19150;BME280;9707;49.158;8.632;2023-04-28T08:26:07;100073.81;;;21.94;40.52
19150;BME280;9707;49.158;8.632;2023-04-28T08:28:32;100053.81;;;21.95;40.40
19150;BME280;9707;49.158;8.632;2023-04-28T08:30:58;100059.25;;;21.95;40.42
19150;BME280;9707;49.158;8.632;2023-04-28T08:33:23;100059.25;;;21.95;40.52
19150;BME280;9707;49.158;8.632;2023-04-28T08:35:49;100064.53;;;21.96;40.63
19150;BME280;9707;49.158;8.632;2023-04-28T08:38:15;100058.25;;;21.96;40.76
19150;BME280;9707;49.158;8.632;2023-04-28T08:40:42;100060.09;;;21.95;40.84
19150;BME280;9707;49.158;8.632;2023-04-28T08:43:07;100065.38;;;21.97;40.79
19150;BME280;9707;49.158;8.632;2023-04-28T08:45:41;100066.38;;;21.96;40.88
19150;BME280;9707;49.158;8.632;2023-04-28T08:48:21;100057.09;;;21.98;40.92
19150;BME280;9707;49.158;8.632;2023-04-28T08:50:53;100048.09;;;21.98;40.99
19150;BME280;9707;49.158;8.632;2023-04-28T08:53:23;100049.09;;;21.97;41.04
19150;BME280;9707;49.158;8.632;2023-04-28T08:55:51;100052.69;;;21.97;41.26
19150;BME280;9707;49.158;8.632;2023-04-28T08:58:18;100047.13;;;21.99;41.18
19150;BME280;9707;49.158;8.632;2023-04-28T09:00:43;100044.41;;;21.99;41.29
19150;BME280;9707;49.158;8.632;2023-04-28T09:03:08;100043.41;;;22.00;41.21
19150;BME280;9707;49.158;8.632;2023-04-28T09:05:35;100051.41;;;22.01;41.63
19150;BME280;9707;49.158;8.632;2023-04-28T09:08:01;100043.28;;;22.01;41.68
19150;BME280;9707;49.158;8.632;2023-04-28T09:10:26;100045.81;;;22.03;42.01
19150;BME280;9707;49.158;8.632;2023-04-28T09:12:53;100034.97;;;22.03;42.47
19150;BME280;9707;49.158;8.632;2023-04-28T09:15:31;100036.56;;;22.05;42.88
19150;BME280;9707;49.158;8.632;2023-04-28T09:17:57;100035.56;;;22.06;43.03
19150;BME280;9707;49.158;8.632;2023-04-28T09:20:27;100037.28;;;22.07;43.67
19150;BME280;9707;49.158;8.632;2023-04-28T09:22:54;100037.16;;;22.09;43.82
19150;BME280;9707;49.158;8.632;2023-04-28T09:25:20;100042.41;;;22.10;44.02
19150;BME280;9707;49.158;8.632;2023-04-28T09:27:47;100038.56;;;22.13;44.11
19150;BME280;9707;49.158;8.632;2023-04-28T09:30:13;100040.31;;;22.14;44.59
19150;BME280;9707;49.158;8.632;2023-04-28T09:32:38;100028.44;;;22.15;44.71
19150;BME280;9707;49.158;8.632;2023-04-28T09:35:04;100018.44;;;22.15;44.79
19150;BME280;9707;49.158;8.632;2023-04-28T09:37:31;100037.28;;;22.17;45.11
19150;BME280;9707;49.158;8.632;2023-04-28T09:40:02;100029.03;;;22.18;44.99
19150;BME280;9707;49.158;8.632;2023-04-28T09:42:39;100035.31;;;22.19;45.02
19150;BME280;9707;49.158;8.632;2023-04-28T09:45:12;100033.31;;;22.21;45.46
19150;BME280;9707;49.158;8.632;2023-04-28T09:47:40;100028.75;;;22.21;45.69
19150;BME280;9707;49.158;8.632;2023-04-28T09:50:08;100031.28;;;22.23;45.90
19150;BME280;9707;49.158;8.632;2023-04-28T09:52:35;100035.00;;;22.22;45.81
19150;BME280;9707;49.158;8.632;2023-04-28T09:55:03;100028.31;;;22.26;45.84
19150;BME280;9707;49.158;8.632;2023-04-28T09:57:30;100031.91;;;22.26;45.99
19150;BME280;9707;49.158;8.632;2023-04-28T09:59:57;100040.75;;;22.28;45.90
19150;BME280;9707;49.158;8.632;2023-04-28T10:02:23;100035.19;;;22.30;45.80
19150;BME280;9707;49.158;8.632;2023-04-28T10:04:49;100028.75;;;22.31;46.34
19150;BME280;9707;49.158;8.632;2023-04-28T10:07:16;100040.47;;;22.31;46.57
19150;BME280;9707;49.158;8.632;2023-04-28T10:09:42;100033.16;;;22.32;46.96
19150;BME280;9707;49.158;8.632;2023-04-28T10:12:11;100027.75;;;22.32;46.90
19150;BME280;9707;49.158;8.632;2023-04-28T10:14:37;100037.59;;;22.33;47.01
19150;BME280;9707;49.158;8.632;2023-04-28T10:17:03;100026.72;;;22.33;46.52
19150;BME280;9707;49.158;8.632;2023-04-28T10:19:30;100027.34;;;22.36;46.29
19150;BME280;9707;49.158;8.632;2023-04-28T10:24:31;100023.47;;;22.39;46.64
19150;BME280;9707;49.158;8.632;2023-04-28T10:27:05;100025.88;;;22.42;46.42
19150;BME280;9707;49.158;8.632;2023-04-28T10:29:33;100027.59;;;22.43;46.40
19150;BME280;9707;49.158;8.632;2023-04-28T10:32:21;100034.75;;;22.44;46.40
19150;BME280;9707;49.158;8.632;2023-04-28T10:34:48;100042.91;;;22.44;46.52
19150;BME280;9707;49.158;8.632;2023-04-28T10:37:14;100036.50;;;22.45;46.48
19150;BME280;9707;49.158;8.632;2023-04-28T10:39:40;100037.34;;;22.45;46.54
19150;BME280;9707;49.158;8.632;2023-04-28T10:45:10;100047.38;;;22.45;46.81
19150;BME280;9707;49.158;8.632;2023-04-28T10:48:00;100052.78;;;22.45;47.26
19150;BME280;9707;49.158;8.632;2023-04-28T10:50:30;100045.63;;;22.44;47.14
19150;BME280;9707;49.158;8.632;2023-04-28T10:52:55;100046.50;;;22.44;47.21
19150;BME280;9707;49.158;8.632;2023-04-28T10:55:28;100047.38;;;22.45;47.47
19150;BME280;9707;49.158;8.632;2023-04-28T11:00:40;100030.22;;;22.44;47.74
19150;BME280;9707;49.158;8.632;2023-04-28T11:03:06;100025.66;;;22.45;47.95
19150;BME280;9707;49.158;8.632;2023-04-28T11:05:31;100031.78;;;22.47;48.30
19150;BME280;9707;49.158;8.632;2023-04-28T11:11:11;100030.78;;;22.48;49.04
19150;BME280;9707;49.158;8.632;2023-04-28T11:13:38;100027.34;;;22.46;49.32
19150;BME280;9707;49.158;8.632;2023-04-28T11:16:03;100025.34;;;22.48;49.02
19150;BME280;9707;49.158;8.632;2023-04-28T11:23:54;100026.34;;;22.47;49.19
19150;BME280;9707;49.158;8.632;2023-04-28T11:26:19;100026.06;;;22.50;49.40
19150;BME280;9707;49.158;8.632;2023-04-28T11:28:53;100020.66;;;22.50;49.46
19150;BME280;9707;49.158;8.632;2023-04-28T11:31:19;100015.91;;;22.52;49.45
19150;BME280;9707;49.158;8.632;2023-04-28T11:33:52;100018.34;;;22.55;49.74
19150;BME280;9707;49.158;8.632;2023-04-28T11:36:22;100024.63;;;22.55;50.02
19150;BME280;9707;49.158;8.632;2023-04-28T11:38:47;100028.22;;;22.56;49.99
19150;BME280;9707;49.158;8.632;2023-04-28T11:41:13;100024.50;;;22.57;50.16
19150;BME280;9707;49.158;8.632;2023-04-28T11:43:38;100015.34;;;22.58;49.73
19150;BME280;9707;49.158;8.632;2023-04-28T11:46:06;100007.06;;;22.59;50.10
19150;BME280;9707;49.158;8.632;2023-04-28T11:48:31;100008.75;;;22.60;50.16
19150;BME280;9707;49.158;8.632;2023-04-28T11:50:57;100016.78;;;22.62;49.85
19150;BME280;9707;49.158;8.632;2023-04-28T11:53:39;100017.66;;;22.62;50.03
19150;BME280;9707;49.158;8.632;2023-04-28T11:56:05;100017.66;;;22.62;49.88
19150;BME280;9707;49.158;8.632;2023-04-28T11:58:32;100022.06;;;22.63;49.87
19150;BME280;9707;49.158;8.632;2023-04-28T12:01:10;100016.50;;;22.65;49.46
19150;BME280;9707;49.158;8.632;2023-04-28T12:03:46;100021.78;;;22.66;49.01
19150;BME280;9707;49.158;8.632;2023-04-28T12:06:11;100012.47;;;22.69;49.07
19150;BME280;9707;49.158;8.632;2023-04-28T12:08:41;100003.34;;;22.70;49.04
19150;BME280;9707;49.158;8.632;2023-04-28T12:11:07;100005.88;;;22.71;49.04
19150;BME280;9707;49.158;8.632;2023-04-28T12:13:34;100018.50;;;22.72;48.81
19150;BME280;9707;49.158;8.632;2023-04-28T12:16:00;100021.22;;;22.72;49.03
19150;BME280;9707;49.158;8.632;2023-04-28T12:18:27;100011.03;;;22.74;48.95
19150;BME280;9707;49.158;8.632;2023-04-28T12:20:53;100025.31;;;22.76;49.31
19150;BME280;9707;49.158;8.632;2023-04-28T12:23:31;100026.06;;;22.78;49.43
19150;BME280;9707;49.158;8.632;2023-04-28T12:25:57;100019.75;;;22.78;49.70
19150;BME280;9707;49.158;8.632;2023-04-28T12:28:23;100021.47;;;22.79;49.98
19150;BME280;9707;49.158;8.632;2023-04-28T12:30:49;100021.47;;;22.79;50.31
19150;BME280;9707;49.158;8.632;2023-04-28T12:33:24;100020.63;;;22.78;50.23
19150;BME280;9707;49.158;8.632;2023-04-28T12:35:49;100019.59;;;22.79;50.31
19150;BME280;9707;49.158;8.632;2023-04-28T12:38:14;100024.16;;;22.79;49.94
19150;BME280;9707;49.158;8.632;2023-04-28T12:40:41;100015.88;;;22.80;49.83
19150;BME280;9707;49.158;8.632;2023-04-28T12:43:06;100021.03;;;22.83;49.43
19150;BME280;9707;49.158;8.632;2023-04-28T12:45:31;100015.59;;;22.83;49.17
19150;BME280;9707;49.158;8.632;2023-04-28T12:47:58;100022.75;;;22.84;49.03
19150;BME280;9707;49.158;8.632;2023-04-28T12:50:23;100018.19;;;22.85;49.03
19150;BME280;9707;49.158;8.632;2023-04-28T12:52:49;100024.47;;;22.85;48.56
19150;BME280;9707;49.158;8.632;2023-04-28T12:55:15;100019.91;;;22.86;48.30
19150;BME280;9707;49.158;8.632;2023-04-28T12:57:40;100028.75;;;22.88;48.29
19150;BME280;9707;49.158;8.632;2023-04-28T13:00:06;100008.72;;;22.89;48.38
19150;BME280;9707;49.158;8.632;2023-04-28T13:02:32;100017.59;;;22.91;48.50
19150;BME280;9707;49.158;8.632;2023-04-28T13:04:57;100011.84;;;22.94;48.39
19150;BME280;9707;49.158;8.632;2023-04-28T13:07:23;100013.59;;;22.95;49.04
19150;BME280;9707;49.158;8.632;2023-04-28T13:09:48;100011.56;;;22.97;49.38
19150;BME280;9707;49.158;8.632;2023-04-28T13:12:13;99999.69;;;22.98;50.00